sensor_id;sensor_type;location;lat;lon;timestamp;pressure;altitude;pressure_sealevel;temperature;humidity
1616;BME280;801;47.982;7.810;2023-04-24T00:00:07;97720.56;;;12.51;100.00
1616;BME280;801;47.982;7.810;2023-04-24T00:02:35;97715.63;;;12.39;100.00
1616;BME280;801;47.982;7.810;2023-04-24T00:05:04;97716.00;;;12.33;100.00
1616;BME280;801;47.982;7.810;2023-04-24T00:07:31;97715.19;;;12.32;100.00
1616;BME280;801;47.982;7.810;2023-04-24T00:09:58;97721.63;;;12.50;100.00
1616;BME280;801;47.982;7.810;2023-04-24T00:12:25;97716.47;;;12.54;100.00
1616;BME280;801;47.982;7.810;2023-04-24T00:14:52;97727.72;;;12.42;100.00
1616;BME280;801;47.982;7.810;2023-04-24T00:17:19;97751.72;;;12.38;100.00
1616;BME280;801;47.982;7.810;2023-04-24T00:19:46;97725.06;;;12.56;100.00
1616;BME280;801;47.982;7.810;2023-04-24T00:22:14;97723.84;;;12.48;100.00
1616;BME280;801;47.982;7.810;2023-04-24T00:24:40;97731.94;;;12.48;100.00
1616;BME280;801;47.982;7.810;2023-04-24T00:27:07;97729.38;;;12.38;100.00
1616;BME280;801;47.982;7.810;2023-04-24T00:29:33;97744.03;;;12.51;100.00
1616;BME280;801;47.982;7.810;2023-04-24T00:32:00;97749.78;;;12.44;100.00
1616;BME280;801;47.982;7.810;2023-04-24T00:34:26;97743.00;;;12.46;100.00
1616;BME280;801;47.982;7.810;2023-04-24T00:36:53;97748.94;;;12.43;100.00
1616;BME280;801;47.982;7.810;2023-04-24T00:39:21;97758.66;;;12.25;100.00
1616;BME280;801;47.982;7.810;2023-04-24T00:41:48;97743.00;;;12.28;100.00
1616;BME280;801;47.982;7.810;2023-04-24T00:44:16;97731.94;;;12.29;100.00
1616;BME280;801;47.982;7.810;2023-04-24T00:46:42;97746.88;;;12.21;100.00
1616;BME280;801;47.982;7.810;2023-04-24T00:49:09;97748.03;;;12.15;100.00
1616;BME280;801;47.982;7.810;2023-04-24T00:51:37;97757.25;;;12.09;100.00
1616;BME280;801;47.982;7.810;2023-04-24T00:54:03;97754.66;;;12.23;100.00
1616;BME280;801;47.982;7.810;2023-04-24T00:56:32;97724.31;;;12.17;100.00
1616;BME280;801;47.982;7.810;2023-04-24T00:58:59;97736.53;;;12.29;100.00
1616;BME280;801;47.982;7.810;2023-04-24T01:01:25;97742.19;;;12.27;100.00
1616;BME280;801;47.982;7.810;2023-04-24T01:03:52;97741.31;;;12.32;100.00
1616;BME280;801;47.982;7.810;2023-04-24T01:06:20;97739.94;;;12.15;100.00
1616;BME280;801;47.982;7.810;2023-04-24T01:08:47;97735.88;;;12.18;100.00
1616;BME280;801;47.982;7.810;2023-04-24T01:11:14;97733.91;;;12.23;100.00
1616;BME280;801;47.982;7.810;2023-04-24T01:13:43;97730.25;;;12.14;100.00
1616;BME280;801;47.982;7.810;2023-04-24T01:16:11;97735.06;;;12.17;100.00
1616;BME280;801;47.982;7.810;2023-04-24T01:18:37;97723.78;;;12.15;100.00
1616;BME280;801;47.982;7.810;2023-04-24T01:21:04;97728.38;;;12.34;100.00
1616;BME280;801;47.982;7.810;2023-04-24T01:23:33;97736.16;;;12.16;100.00
1616;BME280;801;47.982;7.810;2023-04-24T01:26:00;97726.25;;;12.12;100.00
1616;BME280;801;47.982;7.810;2023-04-24T01:28:26;97725.25;;;12.27;100.00
1616;BME280;801;47.982;7.810;2023-04-24T01:30:53;97706.53;;;12.16;100.00
1616;BME280;801;47.982;7.810;2023-04-24T01:33:20;97711.91;;;12.16;100.00
1616;BME280;801;47.982;7.810;2023-04-24T01:35:48;97728.16;;;12.11;100.00
1616;BME280;801;47.982;7.810;2023-04-24T01:38:15;97719.47;;;12.14;100.00
1616;BME280;801;47.982;7.810;2023-04-24T01:40:43;97714.97;;;12.10;100.00
1616;BME280;801;47.982;7.810;2023-04-24T01:43:10;97708.16;;;12.17;100.00
1616;BME280;801;47.982;7.810;2023-04-24T01:45:37;97735.06;;;11.98;100.00
1616;BME280;801;47.982;7.810;2023-04-24T01:48:04;97729.25;;;12.10;100.00
1616;BME280;801;47.982;7.810;2023-04-24T01:50:30;97709.44;;;12.01;100.00
1616;BME280;801;47.982;7.810;2023-04-24T01:52:57;97705.00;;;11.91;100.00
1616;BME280;801;47.982;7.810;2023-04-24T01:55:24;97712.56;;;11.89;100.00
1616;BME280;801;47.982;7.810;2023-04-24T01:57:55;97712.56;;;11.89;100.00
1616;BME280;801;47.982;7.810;2023-04-24T02:00:22;97706.09;;;12.09;100.00
1616;BME280;801;47.982;7.810;2023-04-24T02:02:49;97712.44;;;11.99;100.00
1616;BME280;801;47.982;7.810;2023-04-24T02:05:15;97717.97;;;12.08;100.00
1616;BME280;801;47.982;7.810;2023-04-24T02:07:42;97718.75;;;11.90;100.00
1616;BME280;801;47.982;7.810;2023-04-24T02:10:09;97717.81;;;11.99;100.00
1616;BME280;801;47.982;7.810;2023-04-24T02:12:36;97724.94;;;12.09;100.00
1616;BME280;801;47.982;7.810;2023-04-24T02:15:05;97709.25;;;11.97;100.00
1616;BME280;801;47.982;7.810;2023-04-24T02:17:31;97713.50;;;11.79;100.00
1616;BME280;801;47.982;7.810;2023-04-24T02:19:58;97717.59;;;11.96;100.00
1616;BME280;801;47.982;7.810;2023-04-24T02:22:24;97717.75;;;11.80;100.00
1616;BME280;801;47.982;7.810;2023-04-24T02:24:51;97715.66;;;11.77;100.00
1616;BME280;801;47.982;7.810;2023-04-24T02:27:17;97712.84;;;11.88;100.00
1616;BME280;801;47.982;7.810;2023-04-24T02:29:44;97719.78;;;11.94;100.00
1616;BME280;801;47.982;7.810;2023-04-24T02:32:12;97699.72;;;11.81;100.00
1616;BME280;801;47.982;7.810;2023-04-24T02:34:40;97702.63;;;11.84;100.00
1616;BME280;801;47.982;7.810;2023-04-24T02:37:07;97707.59;;;11.77;100.00
1616;BME280;801;47.982;7.810;2023-04-24T02:39:33;97707.75;;;11.86;100.00
1616;BME280;801;47.982;7.810;2023-04-24T02:42:00;97704.53;;;11.84;100.00
1616;BME280;801;47.982;7.810;2023-04-24T02:44:26;97709.69;;;11.80;100.00
1616;BME280;801;47.982;7.810;2023-04-24T02:46:53;97715.03;;;11.86;100.00
1616;BME280;801;47.982;7.810;2023-04-24T02:49:21;97724.25;;;11.79;100.00
1616;BME280;801;47.982;7.810;2023-04-24T02:51:47;97726.31;;;11.88;100.00
1616;BME280;801;47.982;7.810;2023-04-24T02:54:14;97724.66;;;11.92;100.00
1616;BME280;801;47.982;7.810;2023-04-24T02:56:40;97713.25;;;12.00;100.00
1616;BME280;801;47.982;7.810;2023-04-24T02:59:07;97715.94;;;12.00;100.00
1616;BME280;801;47.982;7.810;2023-04-24T03:01:33;97713.75;;;11.78;100.00
1616;BME280;801;47.982;7.810;2023-04-24T03:04:00;97714.56;;;11.78;100.00
1616;BME280;801;47.982;7.810;2023-04-24T03:06:28;97703.16;;;11.87;100.00
1616;BME280;801;47.982;7.810;2023-04-24T03:08:56;97717.09;;;11.94;100.00
1616;BME280;801;47.982;7.810;2023-04-24T03:11:23;97720.69;;;11.84;100.00
1616;BME280;801;47.982;7.810;2023-04-24T03:13:49;97726.31;;;11.88;100.00
1616;BME280;801;47.982;7.810;2023-04-24T03:16:15;97724.75;;;11.81;100.00
1616;BME280;801;47.982;7.810;2023-04-24T03:18:42;97721.03;;;11.77;100.00
1616;BME280;801;47.982;7.810;2023-04-24T03:21:08;97722.53;;;11.64;100.00
1616;BME280;801;47.982;7.810;2023-04-24T03:23:36;97723.09;;;11.86;100.00
1616;BME280;801;47.982;7.810;2023-04-24T03:26:03;97717.16;;;11.64;100.00
1616;BME280;801;47.982;7.810;2023-04-24T03:28:30;97714.63;;;11.73;100.00
1616;BME280;801;47.982;7.810;2023-04-24T03:30:57;97726.91;;;11.60;100.00
1616;BME280;801;47.982;7.810;2023-04-24T03:33:23;97725.13;;;11.51;100.00
1616;BME280;801;47.982;7.810;2023-04-24T03:35:50;97736.75;;;11.70;100.00
1616;BME280;801;47.982;7.810;2023-04-24T03:38:16;97731.88;;;11.72;100.00
1616;BME280;801;47.982;7.810;2023-04-24T03:40:44;97742.66;;;11.72;100.00
1616;BME280;801;47.982;7.810;2023-04-24T03:43:10;97734.00;;;11.75;100.00
1616;BME280;801;47.982;7.810;2023-04-24T03:45:37;97751.19;;;11.55;100.00
1616;BME280;801;47.982;7.810;2023-04-24T03:48:03;97743.88;;;11.61;100.00
1616;BME280;801;47.982;7.810;2023-04-24T03:50:30;97745.97;;;11.64;100.00
1616;BME280;801;47.982;7.810;2023-04-24T03:52:56;97749.28;;;11.56;100.00
1616;BME280;801;47.982;7.810;2023-04-24T03:55:23;97756.66;;;11.69;100.00
1616;BME280;801;47.982;7.810;2023-04-24T03:57:51;97756.47;;;11.41;100.00
1616;BME280;801;47.982;7.810;2023-04-24T04:00:17;97737.69;;;11.36;100.00
1616;BME280;801;47.982;7.810;2023-04-24T04:02:46;97758.63;;;11.39;100.00
1616;BME280;801;47.982;7.810;2023-04-24T04:05:12;97752.84;;;11.51;100.00
1616;BME280;801;47.982;7.810;2023-04-24T04:07:39;97766.19;;;11.37;100.00
1616;BME280;801;47.982;7.810;2023-04-24T04:10:06;97764.81;;;11.40;100.00
1616;BME280;801;47.982;7.810;2023-04-24T04:12:33;97781.72;;;11.40;100.00
1616;BME280;801;47.982;7.810;2023-04-24T04:15:01;97766.63;;;11.45;100.00
1616;BME280;801;47.982;7.810;2023-04-24T04:17:28;97792.28;;;11.37;100.00
1616;BME280;801;47.982;7.810;2023-04-24T04:19:55;97797.53;;;11.23;100.00
1616;BME280;801;47.982;7.810;2023-04-24T04:22:21;97793.31;;;11.41;100.00
1616;BME280;801;47.982;7.810;2023-04-24T04:24:48;97806.59;;;11.32;100.00
1616;BME280;801;47.982;7.810;2023-04-24T04:27:16;97807.72;;;11.26;100.00
1616;BME280;801;47.982;7.810;2023-04-24T04:29:43;97808.84;;;11.20;100.00
1616;BME280;801;47.982;7.810;2023-04-24T04:32:11;97812.47;;;11.34;100.00
1616;BME280;801;47.982;7.810;2023-04-24T04:34:38;97810.91;;;11.28;100.00
1616;BME280;801;47.982;7.810;2023-04-24T04:37:04;97807.91;;;11.35;100.00
1616;BME280;801;47.982;7.810;2023-04-24T04:39:31;97814.00;;;11.16;100.00
1616;BME280;801;47.982;7.810;2023-04-24T04:41:57;97826.09;;;11.14;100.00
1616;BME280;801;47.982;7.810;2023-04-24T04:44:25;97827.91;;;11.24;100.00
1616;BME280;801;47.982;7.810;2023-04-24T04:46:53;97826.41;;;11.41;100.00
1616;BME280;801;47.982;7.810;2023-04-24T04:49:22;97840.97;;;11.35;100.00
1616;BME280;801;47.982;7.810;2023-04-24T04:51:49;97848.63;;;11.23;100.00
1616;BME280;801;47.982;7.810;2023-04-24T04:54:17;97826.16;;;11.38;100.00
1616;BME280;801;47.982;7.810;2023-04-24T04:56:43;97832.44;;;11.28;100.00
1616;BME280;801;47.982;7.810;2023-04-24T04:59:10;97838.69;;;11.18;100.00
1616;BME280;801;47.982;7.810;2023-04-24T05:01:37;97838.81;;;11.37;100.00
1616;BME280;801;47.982;7.810;2023-04-24T05:04:04;97839.97;;;11.26;100.00
1616;BME280;801;47.982;7.810;2023-04-24T05:06:31;97848.09;;;11.21;100.00
1616;BME280;801;47.982;7.810;2023-04-24T05:08:58;97859.38;;;11.23;100.00
1616;BME280;801;47.982;7.810;2023-04-24T05:11:24;97860.94;;;11.29;100.00
1616;BME280;801;47.982;7.810;2023-04-24T05:13:51;97869.84;;;11.25;100.00
1616;BME280;801;47.982;7.810;2023-04-24T05:16:17;97869.31;;;11.22;100.00
1616;BME280;801;47.982;7.810;2023-04-24T05:18:44;97875.03;;;11.16;100.00
1616;BME280;801;47.982;7.810;2023-04-24T05:21:10;97877.28;;;11.04;100.00
1616;BME280;801;47.982;7.810;2023-04-24T05:23:38;97891.78;;;11.08;100.00
1616;BME280;801;47.982;7.810;2023-04-24T05:26:05;97884.34;;;10.89;100.00
1616;BME280;801;47.982;7.810;2023-04-24T05:28:31;97880.63;;;10.85;100.00
1616;BME280;801;47.982;7.810;2023-04-24T05:30:58;97900.03;;;10.77;100.00
1616;BME280;801;47.982;7.810;2023-04-24T05:33:26;97889.72;;;10.89;100.00
1616;BME280;801;47.982;7.810;2023-04-24T05:35:52;97889.16;;;10.97;100.00
1616;BME280;801;47.982;7.810;2023-04-24T05:38:19;97897.84;;;10.84;100.00
1616;BME280;801;47.982;7.810;2023-04-24T05:40:47;97907.84;;;10.73;100.00
1616;BME280;801;47.982;7.810;2023-04-24T05:43:14;97895.72;;;10.81;100.00
1616;BME280;801;47.982;7.810;2023-04-24T05:45:40;97898.41;;;10.76;100.00
1616;BME280;801;47.982;7.810;2023-04-24T05:48:07;97902.16;;;10.85;100.00
1616;BME280;801;47.982;7.810;2023-04-24T05:50:33;97915.00;;;10.88;100.00
1616;BME280;801;47.982;7.810;2023-04-24T05:53:00;97929.63;;;10.67;100.00
1616;BME280;801;47.982;7.810;2023-04-24T05:55:27;97924.25;;;10.67;100.00
1616;BME280;801;47.982;7.810;2023-04-24T05:57:55;97941.94;;;10.78;100.00
1616;BME280;801;47.982;7.810;2023-04-24T06:00:21;97930.69;;;10.71;100.00
1616;BME280;801;47.982;7.810;2023-04-24T06:02:48;97945.75;;;10.72;100.00
1616;BME280;801;47.982;7.810;2023-04-24T06:05:15;97922.72;;;10.61;100.00
1616;BME280;801;47.982;7.810;2023-04-24T06:07:42;97933.34;;;10.81;100.00
1616;BME280;801;47.982;7.810;2023-04-24T06:10:09;97947.97;;;11.04;100.00
1616;BME280;801;47.982;7.810;2023-04-24T06:12:36;97941.91;;;10.88;100.00
1616;BME280;801;47.982;7.810;2023-04-24T06:15:05;97941.91;;;10.88;100.00
1616;BME280;801;47.982;7.810;2023-04-24T06:17:32;97961.25;;;10.90;100.00
1616;BME280;801;47.982;7.810;2023-04-24T06:19:59;97968.22;;;10.91;100.00
1616;BME280;801;47.982;7.810;2023-04-24T06:22:25;97986.25;;;10.86;100.00
1616;BME280;801;47.982;7.810;2023-04-24T06:24:52;97972.53;;;10.87;100.00
1616;BME280;801;47.982;7.810;2023-04-24T06:27:18;97988.16;;;10.85;100.00
1616;BME280;801;47.982;7.810;2023-04-24T06:29:44;97980.38;;;10.78;100.00
1616;BME280;801;47.982;7.810;2023-04-24T06:32:12;97980.16;;;10.70;100.00
1616;BME280;801;47.982;7.810;2023-04-24T06:34:39;97979.56;;;10.78;100.00
1616;BME280;801;47.982;7.810;2023-04-24T06:37:05;97974.00;;;10.64;100.00
1616;BME280;801;47.982;7.810;2023-04-24T06:39:32;97984.69;;;10.74;100.00
1616;BME280;801;47.982;7.810;2023-04-24T06:41:58;97982.31;;;10.63;100.00
1616;BME280;801;47.982;7.810;2023-04-24T06:44:25;97987.69;;;10.68;100.00
1616;BME280;801;47.982;7.810;2023-04-24T06:46:52;97992.84;;;10.49;100.00
1616;BME280;801;47.982;7.810;2023-04-24T06:49:20;98000.63;;;10.61;100.00
1616;BME280;801;47.982;7.810;2023-04-24T06:51:46;97990.97;;;10.54;100.00
1616;BME280;801;47.982;7.810;2023-04-24T06:54:13;97995.47;;;10.69;100.00
1616;BME280;801;47.982;7.810;2023-04-24T06:56:39;98015.69;;;10.51;100.00
1616;BME280;801;47.982;7.810;2023-04-24T06:59:06;98012.34;;;10.85;100.00
1616;BME280;801;47.982;7.810;2023-04-24T07:01:32;98015.59;;;10.77;100.00
1616;BME280;801;47.982;7.810;2023-04-24T07:03:59;98011.22;;;10.91;100.00
1616;BME280;801;47.982;7.810;2023-04-24T07:06:26;98012.03;;;10.87;100.00
1616;BME280;801;47.982;7.810;2023-04-24T07:08:53;98027.50;;;11.15;100.00
1616;BME280;801;47.982;7.810;2023-04-24T07:11:21;98036.25;;;10.92;100.00
1616;BME280;801;47.982;7.810;2023-04-24T07:13:47;98028.44;;;10.90;100.00
1616;BME280;801;47.982;7.810;2023-04-24T07:16:14;98032.72;;;10.91;100.00
1616;BME280;801;47.982;7.810;2023-04-24T07:18:40;98029.56;;;10.79;100.00
1616;BME280;801;47.982;7.810;2023-04-24T07:21:07;98038.97;;;10.71;100.00
1616;BME280;801;47.982;7.810;2023-04-24T07:23:34;98044.44;;;11.16;100.00
1616;BME280;801;47.982;7.810;2023-04-24T07:26:01;98031.97;;;11.35;100.00
1616;BME280;801;47.982;7.810;2023-04-24T07:28:27;98064.75;;;11.37;100.00
1616;BME280;801;47.982;7.810;2023-04-24T07:30:56;98027.75;;;11.19;100.00
1616;BME280;801;47.982;7.810;2023-04-24T07:33:23;98049.19;;;11.34;100.00
1616;BME280;801;47.982;7.810;2023-04-24T07:35:50;98046.50;;;11.34;100.00
1616;BME280;801;47.982;7.810;2023-04-24T07:38:17;98060.13;;;11.48;100.00
1616;BME280;801;47.982;7.810;2023-04-24T07:40:47;98065.47;;;11.53;100.00
1616;BME280;801;47.982;7.810;2023-04-24T07:43:13;98070.00;;;11.58;100.00
1616;BME280;801;47.982;7.810;2023-04-24T07:45:40;98078.34;;;11.56;100.00
1616;BME280;801;47.982;7.810;2023-04-24T07:48:07;98060.97;;;11.43;100.00
1616;BME280;801;47.982;7.810;2023-04-24T07:50:34;98068.22;;;11.43;100.00
1616;BME280;801;47.982;7.810;2023-04-24T07:53:01;98083.03;;;11.40;100.00
1616;BME280;801;47.982;7.810;2023-04-24T07:55:28;98076.66;;;11.26;100.00
1616;BME280;801;47.982;7.810;2023-04-24T07:57:56;98075.53;;;11.37;100.00
1616;BME280;801;47.982;7.810;2023-04-24T08:00:22;98075.03;;;11.25;100.00
1616;BME280;801;47.982;7.810;2023-04-24T08:02:49;98096.97;;;11.53;100.00
1616;BME280;801;47.982;7.810;2023-04-24T08:05:15;98085.94;;;11.94;100.00
1616;BME280;801;47.982;7.810;2023-04-24T08:07:42;98101.78;;;11.61;100.00
1616;BME280;801;47.982;7.810;2023-04-24T08:10:10;98092.72;;;11.81;100.00
1616;BME280;801;47.982;7.810;2023-04-24T08:12:37;98117.38;;;11.59;100.00
1616;BME280;801;47.982;7.810;2023-04-24T08:15:06;98113.84;;;11.63;100.00
1616;BME280;801;47.982;7.810;2023-04-24T08:17:33;98107.66;;;11.63;100.00
1616;BME280;801;47.982;7.810;2023-04-24T08:20:00;98114.69;;;11.54;100.00
1616;BME280;801;47.982;7.810;2023-04-24T08:22:27;98127.63;;;11.57;100.00
1616;BME280;801;47.982;7.810;2023-04-24T08:24:54;98124.97;;;11.47;100.00
1616;BME280;801;47.982;7.810;2023-04-24T08:27:21;98113.06;;;11.58;100.00
1616;BME280;801;47.982;7.810;2023-04-24T08:29:47;98122.81;;;11.49;100.00
1616;BME280;801;47.982;7.810;2023-04-24T08:32:16;98128.81;;;11.80;100.00
1616;BME280;801;47.982;7.810;2023-04-24T08:34:42;98117.59;;;11.68;93.22
1616;BME280;801;47.982;7.810;2023-04-24T08:37:09;98127.44;;;11.93;84.53
1616;BME280;801;47.982;7.810;2023-04-24T08:39:36;98128.84;;;12.14;81.92
1616;BME280;801;47.982;7.810;2023-04-24T08:42:04;98147.13;;;12.22;79.88
1616;BME280;801;47.982;7.810;2023-04-24T08:44:33;98145.53;;;12.16;78.52
1616;BME280;801;47.982;7.810;2023-04-24T08:47:00;98152.34;;;12.09;76.88
1616;BME280;801;47.982;7.810;2023-04-24T08:49:29;98135.28;;;12.18;76.87
1616;BME280;801;47.982;7.810;2023-04-24T08:51:56;98150.81;;;12.32;80.34
1616;BME280;801;47.982;7.810;2023-04-24T08:54:25;98154.22;;;12.42;76.86
1616;BME280;801;47.982;7.810;2023-04-24T08:56:53;98150.28;;;12.30;78.00
1616;BME280;801;47.982;7.810;2023-04-24T08:59:21;98162.38;;;12.32;78.33
1616;BME280;801;47.982;7.810;2023-04-24T09:01:49;98166.56;;;12.14;69.90
1616;BME280;801;47.982;7.810;2023-04-24T09:04:17;98177.75;;;11.97;70.49
1616;BME280;801;47.982;7.810;2023-04-24T09:06:48;98172.59;;;12.01;71.70
1616;BME280;801;47.982;7.810;2023-04-24T09:09:16;98184.44;;;12.00;71.25
1616;BME280;801;47.982;7.810;2023-04-24T09:11:43;98168.81;;;12.02;71.72
1616;BME280;801;47.982;7.810;2023-04-24T09:14:10;98184.44;;;12.00;71.38
1616;BME280;801;47.982;7.810;2023-04-24T09:16:36;98182.66;;;11.80;69.09
1616;BME280;801;47.982;7.810;2023-04-24T09:19:03;98176.97;;;11.87;71.59
1616;BME280;801;47.982;7.810;2023-04-24T09:21:32;98188.16;;;12.09;69.73
1616;BME280;801;47.982;7.810;2023-04-24T09:24:01;98222.22;;;12.29;67.41
1616;BME280;801;47.982;7.810;2023-04-24T09:26:29;98179.69;;;12.60;67.29
1616;BME280;801;47.982;7.810;2023-04-24T09:28:58;98184.94;;;12.46;66.32
1616;BME280;801;47.982;7.810;2023-04-24T09:31:27;98176.06;;;12.07;68.17
1616;BME280;801;47.982;7.810;2023-04-24T09:33:56;98185.22;;;12.05;70.03
1616;BME280;801;47.982;7.810;2023-04-24T09:36:27;98187.97;;;11.95;69.81
1616;BME280;801;47.982;7.810;2023-04-24T09:38:57;98202.56;;;11.84;70.83
1616;BME280;801;47.982;7.810;2023-04-24T09:41:26;98197.91;;;12.00;73.29
1616;BME280;801;47.982;7.810;2023-04-24T09:43:54;98210.06;;;11.97;74.65
1616;BME280;801;47.982;7.810;2023-04-24T09:46:21;98210.81;;;12.03;74.09
1616;BME280;801;47.982;7.810;2023-04-24T09:48:48;98206.50;;;12.07;74.66
1616;BME280;801;47.982;7.810;2023-04-24T09:51:14;98215.66;;;12.06;70.94
1616;BME280;801;47.982;7.810;2023-04-24T09:53:45;98208.63;;;12.10;71.06
1616;BME280;801;47.982;7.810;2023-04-24T09:56:12;98218.88;;;12.03;71.42
1616;BME280;801;47.982;7.810;2023-04-24T09:58:40;98222.50;;;12.33;71.46
1616;BME280;801;47.982;7.810;2023-04-24T10:01:06;98219.44;;;12.44;69.78
1616;BME280;801;47.982;7.810;2023-04-24T10:03:33;98212.31;;;12.88;66.56
1616;BME280;801;47.982;7.810;2023-04-24T10:06:01;98223.53;;;12.71;64.26
1616;BME280;801;47.982;7.810;2023-04-24T10:08:33;98217.41;;;12.60;61.49
1616;BME280;801;47.982;7.810;2023-04-24T10:10:59;98218.88;;;12.77;61.33
1616;BME280;801;47.982;7.810;2023-04-24T10:13:26;98222.41;;;12.77;58.77
1616;BME280;801;47.982;7.810;2023-04-24T10:15:56;98226.28;;;13.48;58.33
1616;BME280;801;47.982;7.810;2023-04-24T10:18:24;98226.75;;;13.56;56.69
1616;BME280;801;47.982;7.810;2023-04-24T10:20:52;98233.03;;;13.70;55.43
1616;BME280;801;47.982;7.810;2023-04-24T10:23:20;98246.97;;;13.77;55.68
1616;BME280;801;47.982;7.810;2023-04-24T10:25:48;98240.63;;;13.68;55.11
1616;BME280;801;47.982;7.810;2023-04-24T10:28:16;98227.72;;;13.12;56.57
1616;BME280;801;47.982;7.810;2023-04-24T10:30:45;98229.31;;;13.13;58.24
1616;BME280;801;47.982;7.810;2023-04-24T10:33:13;98238.78;;;13.10;59.59
1616;BME280;801;47.982;7.810;2023-04-24T10:35:44;98231.69;;;12.90;57.64
1616;BME280;801;47.982;7.810;2023-04-24T10:38:14;98234.38;;;13.19;59.25
1616;BME280;801;47.982;7.810;2023-04-24T10:40:42;98237.47;;;13.07;60.13
1616;BME280;801;47.982;7.810;2023-04-24T10:43:09;98229.31;;;12.54;61.80
1616;BME280;801;47.982;7.810;2023-04-24T10:45:36;98234.00;;;12.78;63.63
1616;BME280;801;47.982;7.810;2023-04-24T10:48:04;98246.47;;;12.69;63.26
1616;BME280;801;47.982;7.810;2023-04-24T10:50:45;98223.94;;;12.83;61.48
1616;BME280;801;47.982;7.810;2023-04-24T10:53:14;98245.69;;;12.97;61.85
1616;BME280;801;47.982;7.810;2023-04-24T10:55:42;98235.56;;;12.84;63.31
1616;BME280;801;47.982;7.810;2023-04-24T10:58:10;98245.91;;;12.72;65.50
1616;BME280;801;47.982;7.810;2023-04-24T11:00:37;98248.75;;;12.51;64.48
1616;BME280;801;47.982;7.810;2023-04-24T11:03:04;98247.69;;;12.47;67.13
1616;BME280;801;47.982;7.810;2023-04-24T11:05:53;98252.53;;;12.50;67.00
1616;BME280;801;47.982;7.810;2023-04-24T11:08:30;98256.19;;;12.30;66.41
1616;BME280;801;47.982;7.810;2023-04-24T11:11:00;98247.81;;;12.32;67.05
1616;BME280;801;47.982;7.810;2023-04-24T11:14:03;98252.66;;;12.35;67.37
1616;BME280;801;47.982;7.810;2023-04-24T11:16:43;98259.28;;;12.08;69.06
1616;BME280;801;47.982;7.810;2023-04-24T11:19:18;98258.59;;;12.32;68.45
1616;BME280;801;47.982;7.810;2023-04-24T11:21:49;98255.13;;;12.26;68.88
1616;BME280;801;47.982;7.810;2023-04-24T11:24:28;98264.78;;;12.32;68.60
1616;BME280;801;47.982;7.810;2023-04-24T11:26:57;98268.56;;;12.31;69.26
1616;BME280;801;47.982;7.810;2023-04-24T11:29:39;98269.09;;;12.33;69.41
1616;BME280;801;47.982;7.810;2023-04-24T11:32:26;98256.84;;;12.51;70.02
1616;BME280;801;47.982;7.810;2023-04-24T11:34:54;98252.41;;;12.65;69.69
1616;BME280;801;47.982;7.810;2023-04-24T11:37:26;98256.94;;;13.04;69.24
1616;BME280;801;47.982;7.810;2023-04-24T11:39:56;98263.03;;;12.86;66.41
1616;BME280;801;47.982;7.810;2023-04-24T11:42:22;98251.81;;;13.32;67.37
1616;BME280;801;47.982;7.810;2023-04-24T11:44:52;98250.66;;;13.86;64.29
1616;BME280;801;47.982;7.810;2023-04-24T11:47:19;98240.47;;;14.02;61.16
1616;BME280;801;47.982;7.810;2023-04-24T11:49:46;98248.59;;;13.78;61.91
1616;BME280;801;47.982;7.810;2023-04-24T11:52:15;98250.06;;;13.46;63.94
1616;BME280;801;47.982;7.810;2023-04-24T11:54:48;98238.09;;;13.53;64.60
1616;BME280;801;47.982;7.810;2023-04-24T11:57:15;98231.78;;;13.38;65.00
1616;BME280;801;47.982;7.810;2023-04-24T11:59:42;98231.34;;;13.31;68.21
1616;BME280;801;47.982;7.810;2023-04-24T12:02:09;98235.19;;;13.73;67.25
1616;BME280;801;47.982;7.810;2023-04-24T12:04:45;98232.47;;;13.73;67.32
1616;BME280;801;47.982;7.810;2023-04-24T12:07:12;98230.81;;;13.29;65.94
1616;BME280;801;47.982;7.810;2023-04-24T12:09:43;98228.47;;;13.46;66.39
1616;BME280;801;47.982;7.810;2023-04-24T12:12:12;98239.97;;;13.33;68.08
1616;BME280;801;47.982;7.810;2023-04-24T12:14:49;98230.50;;;13.31;69.66
1616;BME280;801;47.982;7.810;2023-04-24T12:17:16;98228.13;;;13.29;69.31
1616;BME280;801;47.982;7.810;2023-04-24T12:19:47;98225.06;;;14.03;68.82
1616;BME280;801;47.982;7.810;2023-04-24T12:22:14;98220.09;;;14.10;64.78
1616;BME280;801;47.982;7.810;2023-04-24T12:25:01;98236.50;;;14.51;64.85
1616;BME280;801;47.982;7.810;2023-04-24T12:27:32;98219.56;;;14.65;64.58
1616;BME280;801;47.982;7.810;2023-04-24T12:30:00;98215.47;;;14.29;62.93
1616;BME280;801;47.982;7.810;2023-04-24T12:32:27;98221.59;;;13.78;66.14
1616;BME280;801;47.982;7.810;2023-04-24T12:34:54;98222.13;;;13.99;67.57
1616;BME280;801;47.982;7.810;2023-04-24T12:37:23;98239.13;;;13.81;65.46
1616;BME280;801;47.982;7.810;2023-04-24T12:40:00;98225.28;;;13.63;63.70
1616;BME280;801;47.982;7.810;2023-04-24T12:42:27;98221.88;;;13.58;64.66
1616;BME280;801;47.982;7.810;2023-04-24T12:44:57;98219.53;;;13.46;65.36
1616;BME280;801;47.982;7.810;2023-04-24T12:47:25;98223.19;;;13.60;66.55
1616;BME280;801;47.982;7.810;2023-04-24T12:49:51;98206.75;;;13.33;64.72
1616;BME280;801;47.982;7.810;2023-04-24T12:52:18;98214.31;;;13.31;65.99
1616;BME280;801;47.982;7.810;2023-04-24T12:54:45;98213.28;;;13.50;67.44
1616;BME280;801;47.982;7.810;2023-04-24T12:57:11;98208.47;;;13.47;65.70
1616;BME280;801;47.982;7.810;2023-04-24T12:59:38;98210.53;;;13.56;65.80
1616;BME280;801;47.982;7.810;2023-04-24T13:02:07;98213.13;;;14.04;65.60
1616;BME280;801;47.982;7.810;2023-04-24T13:04:34;98206.47;;;13.77;62.77
1616;BME280;801;47.982;7.810;2023-04-24T13:07:00;98201.25;;;14.05;62.22
1616;BME280;801;47.982;7.810;2023-04-24T13:09:27;98203.16;;;14.04;65.11
1616;BME280;801;47.982;7.810;2023-04-24T13:11:54;98207.03;;;13.98;67.43
1616;BME280;801;47.982;7.810;2023-04-24T13:14:21;98207.31;;;13.78;65.06
1616;BME280;801;47.982;7.810;2023-04-24T13:16:48;98202.47;;;13.75;66.97
1616;BME280;801;47.982;7.810;2023-04-24T13:19:17;98201.81;;;14.02;67.51
1616;BME280;801;47.982;7.810;2023-04-24T13:21:44;98198.13;;;13.98;66.08
1616;BME280;801;47.982;7.810;2023-04-24T13:24:10;98201.97;;;13.91;64.04
1616;BME280;801;47.982;7.810;2023-04-24T13:26:38;98198.94;;;13.55;65.30